createdAt,value
2022-11-09T00:01:37.578Z,5.90
2022-11-09T00:04:25.964Z,5.80
2022-11-09T00:07:13.029Z,5.80
2022-11-09T00:10:00.526Z,5.80
2022-11-09T00:12:47.565Z,5.80
2022-11-09T00:15:34.438Z,5.90
2022-11-09T00:18:21.571Z,5.90
2022-11-09T00:21:11.242Z,5.90
2022-11-09T00:23:58.845Z,6.00
2022-11-09T00:26:45.918Z,6.00
2022-11-09T00:29:32.965Z,6.10
2022-11-09T00:32:25.216Z,6.10
2022-11-09T00:35:14.788Z,6.20
2022-11-09T00:38:03.281Z,6.20
2022-11-09T00:40:50.119Z,6.30
2022-11-09T00:43:36.821Z,6.40
2022-11-09T00:46:24.147Z,6.50
2022-11-09T00:49:11.660Z,6.50
2022-11-09T00:51:58.573Z,6.60
2022-11-09T00:54:46.667Z,6.60
2022-11-09T00:57:33.728Z,6.60
2022-11-09T01:00:22.054Z,6.70
2022-11-09T01:03:08.888Z,6.70
2022-11-09T01:05:59.958Z,6.70
2022-11-09T01:08:47.452Z,6.80
2022-11-09T01:11:36.342Z,6.80
2022-11-09T01:14:23.704Z,6.80
2022-11-09T01:17:11.094Z,6.80
2022-11-09T01:19:57.847Z,6.90
2022-11-09T01:22:44.718Z,6.90
2022-11-09T01:25:31.524Z,6.90
2022-11-09T01:28:19.845Z,7.00
2022-11-09T01:31:08.846Z,7.00
2022-11-09T01:33:56.560Z,7.10
2022-11-09T01:36:43.286Z,7.10
2022-11-09T01:39:30.455Z,7.10
2022-11-09T01:42:22.768Z,7.20
2022-11-09T01:45:29.398Z,7.30
2022-11-09T01:48:19.909Z,7.30
2022-11-09T01:51:11.539Z,7.30
2022-11-09T01:54:02.313Z,7.30
2022-11-09T01:56:53.132Z,7.30
2022-11-09T01:59:43.693Z,7.40
2022-11-09T02:02:31.944Z,7.40
2022-11-09T02:05:25.032Z,7.40
2022-11-09T02:08:15.804Z,7.40
2022-11-09T02:11:08.058Z,7.40
2022-11-09T02:13:58.565Z,7.50
2022-11-09T02:16:47.599Z,7.50
2022-11-09T02:19:35.906Z,7.50
2022-11-09T02:22:24.319Z,7.50
2022-11-09T02:25:14.395Z,7.50
2022-11-09T02:28:01.663Z,7.50
2022-11-09T02:30:52.298Z,7.50
2022-11-09T02:33:45.472Z,7.50
2022-11-09T02:36:32.442Z,7.50
2022-11-09T02:39:24.908Z,7.50
2022-11-09T02:42:18.475Z,7.50
2022-11-09T02:45:09.626Z,7.50
2022-11-09T02:47:56.878Z,7.50
2022-11-09T02:50:50.613Z,7.60
2022-11-09T02:53:37.639Z,7.60
2022-11-09T02:56:25.734Z,7.60
2022-11-09T02:59:12.779Z,7.60
2022-11-09T03:01:59.693Z,7.60
2022-11-09T03:04:46.571Z,7.70
2022-11-09T03:07:33.641Z,7.60
2022-11-09T03:10:20.552Z,7.60
2022-11-09T03:13:08.831Z,7.70
2022-11-09T03:15:56.070Z,7.70
2022-11-09T03:18:42.950Z,7.70
2022-11-09T03:21:30.561Z,7.70
2022-11-09T03:24:17.724Z,7.60
2022-11-09T03:27:04.531Z,7.70
2022-11-09T03:29:52.817Z,7.70
2022-11-09T03:32:40.305Z,7.70
2022-11-09T03:35:27.303Z,7.70
2022-11-09T03:38:14.556Z,7.70
2022-11-09T03:41:02.042Z,7.80
2022-11-09T03:43:49.126Z,7.80
2022-11-09T03:46:37.621Z,8.10
2022-11-09T03:49:25.241Z,8.20
2022-11-09T03:52:12.343Z,8.50
2022-11-09T03:54:59.242Z,8.80
2022-11-09T03:57:46.719Z,8.90
2022-11-09T04:00:33.985Z,8.90
2022-11-09T04:03:22.663Z,8.90
2022-11-09T04:06:10.796Z,8.90
2022-11-09T04:08:57.522Z,8.90
2022-11-09T04:11:44.418Z,8.90
2022-11-09T04:14:31.601Z,8.90
2022-11-09T04:17:18.445Z,9.00
2022-11-09T04:20:08.547Z,9.00
2022-11-09T04:22:56.799Z,9.00
2022-11-09T04:25:44.007Z,9.10
2022-11-09T04:28:32.821Z,9.20
2022-11-09T04:31:21.305Z,9.10
2022-11-09T04:34:11.057Z,9.20
2022-11-09T04:36:59.213Z,9.20
2022-11-09T04:39:46.325Z,9.20
2022-11-09T04:42:33.407Z,9.10
2022-11-09T04:45:20.926Z,9.20
2022-11-09T04:48:09.548Z,9.20
2022-11-09T04:51:01.595Z,9.20
2022-11-09T04:53:50.199Z,9.10
2022-11-09T04:56:37.408Z,9.20
2022-11-09T04:59:24.154Z,9.20
2022-11-09T05:02:11.588Z,9.10
2022-11-09T05:04:58.932Z,9.10
2022-11-09T05:07:45.815Z,9.20
2022-11-09T05:10:34.207Z,9.20
2022-11-09T05:13:21.658Z,9.20
2022-11-09T05:16:08.992Z,9.10
2022-11-09T05:18:55.763Z,9.50
2022-11-09T05:21:42.946Z,9.40
2022-11-09T05:24:28.713Z,9.40
2022-11-09T05:27:17.388Z,9.40
2022-11-09T05:30:04.147Z,9.30
2022-11-09T05:32:51.399Z,9.40
2022-11-09T05:35:38.246Z,9.30
2022-11-09T05:38:25.320Z,9.30
2022-11-09T05:41:12.619Z,9.30
2022-11-09T05:44:00.949Z,9.50
2022-11-09T05:46:48.232Z,9.40
2022-11-09T05:49:35.350Z,9.40
2022-11-09T05:52:22.414Z,9.50
2022-11-09T05:55:10.576Z,9.50
2022-11-09T05:57:57.842Z,9.50
2022-11-09T06:00:47.200Z,9.50
2022-11-09T06:03:34.464Z,9.50
2022-11-09T06:06:21.327Z,9.50
2022-11-09T06:09:08.197Z,9.50
2022-11-09T06:11:54.950Z,9.50
2022-11-09T06:14:41.677Z,9.50
2022-11-09T06:17:30.026Z,9.50
2022-11-09T06:20:17.656Z,9.50
2022-11-09T06:23:04.660Z,9.50
2022-11-09T06:25:51.806Z,9.50
2022-11-09T06:28:39.729Z,9.50
2022-11-09T06:31:27.004Z,9.50
2022-11-09T06:34:15.112Z,9.50
2022-11-09T06:37:02.261Z,9.60
2022-11-09T06:39:59.634Z,9.60
2022-11-09T06:42:48.477Z,9.60
2022-11-09T06:45:35.645Z,9.60
2022-11-09T06:48:22.953Z,9.60
2022-11-09T06:51:12.148Z,9.60
2022-11-09T06:53:59.128Z,9.60
2022-11-09T06:56:46.072Z,9.60
2022-11-09T06:59:33.039Z,9.60
2022-11-09T07:02:19.893Z,9.60
2022-11-09T07:05:07.225Z,9.60
2022-11-09T07:07:55.602Z,9.60
2022-11-09T07:10:42.899Z,9.60
2022-11-09T07:13:30.002Z,9.60
2022-11-09T07:16:17.804Z,9.70
2022-11-09T07:19:05.254Z,9.60
2022-11-09T07:21:52.183Z,9.60
2022-11-09T07:24:40.455Z,9.70
2022-11-09T07:27:28.416Z,9.60
2022-11-09T07:30:17.093Z,9.70
2022-11-09T07:33:14.653Z,9.60
2022-11-09T07:36:03.726Z,9.70
2022-11-09T07:38:50.806Z,9.70
2022-11-09T07:41:39.059Z,9.70
2022-11-09T07:44:25.896Z,9.70
2022-11-09T07:47:18.106Z,9.70
2022-11-09T07:50:06.020Z,9.70
2022-11-09T07:52:52.689Z,9.70
2022-11-09T07:55:39.408Z,9.80
2022-11-09T07:58:28.348Z,9.80
2022-11-09T08:01:15.396Z,9.80
2022-11-09T08:04:02.613Z,9.80
2022-11-09T08:06:49.907Z,9.80
2022-11-09T08:09:36.883Z,9.90
2022-11-09T08:12:23.710Z,9.90
2022-11-09T08:15:12.696Z,9.90
2022-11-09T08:18:01.591Z,9.90
2022-11-09T08:20:50.503Z,10.00
2022-11-09T08:23:37.387Z,10.00
2022-11-09T08:26:24.296Z,10.00
2022-11-09T08:29:13.573Z,10.00
2022-11-09T08:32:02.151Z,10.00
2022-11-09T08:34:49.574Z,10.10
2022-11-09T08:37:36.623Z,10.20
2022-11-09T08:40:25.931Z,10.20
2022-11-09T08:43:14.185Z,10.10
2022-11-09T08:46:01.338Z,10.10
2022-11-09T08:48:49.699Z,10.10
2022-11-09T08:51:36.813Z,10.20
2022-11-09T08:54:24.098Z,10.20
2022-11-09T08:57:11.095Z,10.10
2022-11-09T08:59:57.919Z,10.20
2022-11-09T09:02:44.780Z,10.20
2022-11-09T09:05:33.355Z,10.20
2022-11-09T09:08:23.473Z,10.20
2022-11-09T09:11:10.541Z,10.20
2022-11-09T09:13:57.207Z,10.20
2022-11-09T09:16:44.060Z,10.30
2022-11-09T09:19:31.125Z,10.30
2022-11-09T09:22:19.898Z,10.30
2022-11-09T09:25:07.866Z,10.30
2022-11-09T09:27:54.507Z,10.40
2022-11-09T09:30:41.644Z,10.50
2022-11-09T09:33:48.845Z,10.50
2022-11-09T09:36:40.105Z,10.50
2022-11-09T09:39:30.553Z,10.50
2022-11-09T09:42:21.779Z,10.50
2022-11-09T09:45:14.807Z,10.50
2022-11-09T09:48:11.800Z,10.50
2022-11-09T09:51:05.416Z,10.50
2022-11-09T09:53:57.786Z,10.50
2022-11-09T09:56:48.175Z,10.50
2022-11-09T09:59:39.955Z,10.60
2022-11-09T10:02:28.854Z,10.60
2022-11-09T10:05:18.331Z,10.70
2022-11-09T10:08:11.585Z,10.70
2022-11-09T10:11:11.485Z,10.70
2022-11-09T10:14:16.491Z,10.80
2022-11-09T10:17:13.144Z,10.80
2022-11-09T10:20:15.599Z,10.90
2022-11-09T10:23:19.686Z,10.90
2022-11-09T10:26:15.737Z,10.90
2022-11-09T10:29:20.774Z,11.00
2022-11-09T10:32:14.995Z,10.80
2022-11-09T10:35:08.023Z,10.80
2022-11-09T10:37:55.945Z,10.70
2022-11-09T10:40:52.977Z,10.60
2022-11-09T10:43:39.907Z,10.70
2022-11-09T10:46:28.494Z,10.70
2022-11-09T10:49:21.909Z,10.60
2022-11-09T10:52:32.905Z,10.50
2022-11-09T10:55:28.506Z,10.50
2022-11-09T10:58:25.050Z,10.60
2022-11-09T11:01:15.906Z,10.60
2022-11-09T11:04:21.306Z,10.70
2022-11-09T11:07:20.614Z,10.70
2022-11-09T11:10:12.808Z,10.80
2022-11-09T11:13:24.559Z,10.70
2022-11-09T11:16:17.562Z,10.80
2022-11-09T11:19:06.592Z,10.80
2022-11-09T11:22:23.045Z,10.90
2022-11-09T11:25:20.726Z,11.00
2022-11-09T11:28:17.667Z,11.10
2022-11-09T11:31:05.386Z,11.20
2022-11-09T11:33:52.352Z,11.10
2022-11-09T11:36:50.792Z,11.10
2022-11-09T11:39:55.051Z,11.10
2022-11-09T11:43:00.312Z,11.20
2022-11-09T11:45:54.197Z,11.20
2022-11-09T11:49:19.752Z,11.30
2022-11-09T11:52:15.662Z,11.20
2022-11-09T11:55:35.138Z,11.20
2022-11-09T11:58:34.878Z,11.20
2022-11-09T12:01:33.642Z,11.20
2022-11-09T12:04:48.012Z,11.20
2022-11-09T12:07:46.596Z,11.30
2022-11-09T12:10:45.679Z,11.30
2022-11-09T12:13:59.208Z,11.30
2022-11-09T12:16:54.037Z,11.30
2022-11-09T12:20:22.355Z,11.30
2022-11-09T12:23:30.784Z,11.30
2022-11-09T12:26:25.564Z,11.30
2022-11-09T12:29:20.678Z,11.30
2022-11-09T12:32:18.521Z,11.30
2022-11-09T12:35:21.054Z,11.40
2022-11-09T12:38:19.353Z,11.40
2022-11-09T12:41:15.378Z,11.40
2022-11-09T12:44:06.010Z,11.40
2022-11-09T12:46:58.997Z,11.40
2022-11-09T12:49:47.803Z,11.40
2022-11-09T12:52:34.980Z,11.40
2022-11-09T12:55:29.784Z,11.50
2022-11-09T12:58:26.931Z,11.40
2022-11-09T13:01:35.221Z,11.40
2022-11-09T13:04:24.394Z,11.40
2022-11-09T13:07:31.379Z,11.40
2022-11-09T13:10:32.776Z,11.50
2022-11-09T13:13:26.611Z,11.50
2022-11-09T13:16:33.848Z,11.50
2022-11-09T13:19:52.516Z,11.50
2022-11-09T13:23:02.850Z,11.50
2022-11-09T13:25:53.105Z,11.50
2022-11-09T13:28:46.409Z,11.50
2022-11-09T13:32:02.927Z,11.50
2022-11-09T13:34:52.276Z,11.50
2022-11-09T13:37:49.521Z,11.60
2022-11-09T13:40:45.971Z,11.60
2022-11-09T13:43:33.898Z,11.50
2022-11-09T13:46:30.743Z,11.40
2022-11-09T13:49:43.957Z,11.40
2022-11-09T13:52:49.287Z,11.50
2022-11-09T13:55:39.156Z,11.40
2022-11-09T13:58:30.043Z,11.40
2022-11-09T14:01:30.490Z,11.50
2022-11-09T14:04:27.840Z,11.50
2022-11-09T14:07:23.310Z,11.50
2022-11-09T14:10:20.006Z,11.50
2022-11-09T14:13:22.246Z,11.50
2022-11-09T14:16:17.378Z,11.50
2022-11-09T14:19:15.563Z,11.40
2022-11-09T14:22:02.300Z,11.40
2022-11-09T14:24:49.415Z,11.30
2022-11-09T14:27:36.335Z,11.30
2022-11-09T14:30:25.323Z,11.30
2022-11-09T14:33:24.164Z,11.30
2022-11-09T14:36:14.905Z,11.30
2022-11-09T14:39:03.768Z,11.30
2022-11-09T14:41:51.913Z,11.20
2022-11-09T14:44:44.637Z,11.20
2022-11-09T14:47:34.123Z,11.20
2022-11-09T14:50:24.066Z,11.10
2022-11-09T14:53:19.085Z,11.00
2022-11-09T14:56:08.204Z,10.90
2022-11-09T14:58:57.353Z,10.80
2022-11-09T15:01:58.968Z,10.70
2022-11-09T15:04:57.512Z,10.60
2022-11-09T15:07:47.832Z,10.60
2022-11-09T15:10:36.428Z,10.60
2022-11-09T15:13:32.129Z,10.40
2022-11-09T15:16:23.251Z,10.30
2022-11-09T15:19:23.220Z,10.20
2022-11-09T15:22:51.020Z,10.20
2022-11-09T15:25:56.845Z,10.20
2022-11-09T15:28:49.119Z,10.10
2022-11-09T15:31:36.191Z,10.10
2022-11-09T15:34:25.396Z,10.00
2022-11-09T15:37:29.451Z,10.00
2022-11-09T15:40:20.236Z,9.90
2022-11-09T15:43:08.614Z,9.80
2022-11-09T15:45:55.906Z,9.80
2022-11-09T15:48:46.257Z,9.70
2022-11-09T15:51:33.594Z,9.70
2022-11-09T15:54:23.349Z,9.70
2022-11-09T15:57:16.703Z,9.70
2022-11-09T16:00:12.623Z,9.60
2022-11-09T16:03:01.416Z,9.60
2022-11-09T16:05:49.543Z,9.50
2022-11-09T16:08:36.633Z,9.60
2022-11-09T16:11:23.649Z,9.50
2022-11-09T16:14:10.819Z,9.50
2022-11-09T16:17:00.193Z,9.50
2022-11-09T16:19:47.289Z,9.50
2022-11-09T16:22:34.793Z,9.40
2022-11-09T16:25:22.538Z,9.40
2022-11-09T16:28:09.760Z,9.40
2022-11-09T16:30:57.003Z,9.40
2022-11-09T16:33:45.193Z,9.40
2022-11-09T16:36:32.626Z,9.40
2022-11-09T16:39:20.023Z,9.40
2022-11-09T16:42:09.889Z,9.30
2022-11-09T16:44:59.743Z,9.30
2022-11-09T16:47:49.882Z,9.30
2022-11-09T16:50:38.289Z,9.20
2022-11-09T16:53:27.102Z,9.30
2022-11-09T16:56:15.006Z,9.20
2022-11-09T16:59:02.232Z,9.20
2022-11-09T17:01:53.340Z,9.20
2022-11-09T17:04:40.128Z,9.20
2022-11-09T17:07:28.953Z,9.20
2022-11-09T17:10:15.900Z,9.10
2022-11-09T17:13:03.125Z,9.00
2022-11-09T17:15:51.947Z,9.00
2022-11-09T17:18:38.879Z,9.00
2022-11-09T17:21:27.372Z,9.00
2022-11-09T17:24:17.361Z,9.00
2022-11-09T17:27:04.131Z,9.00
2022-11-09T17:29:50.953Z,9.00
2022-11-09T17:32:38.166Z,9.00
2022-11-09T17:35:25.543Z,8.90
2022-11-09T17:39:21.926Z,8.90
2022-11-09T17:42:16.271Z,8.90
2022-11-09T17:45:03.013Z,8.80
2022-11-09T17:47:49.973Z,8.80
2022-11-09T17:50:36.942Z,8.80
2022-11-09T17:53:23.706Z,8.80
2022-11-09T17:56:11.757Z,8.70
2022-11-09T17:59:00.624Z,8.70
2022-11-09T18:01:47.632Z,8.70
2022-11-09T18:04:34.879Z,8.70
2022-11-09T18:07:21.894Z,8.70
2022-11-09T18:10:10.509Z,8.70
2022-11-09T18:12:57.672Z,8.60
2022-11-09T18:15:50.203Z,8.60
2022-11-09T18:18:38.943Z,8.60
2022-11-09T18:21:26.306Z,8.60
2022-11-09T18:24:13.600Z,8.60
2022-11-09T18:27:00.948Z,8.60
2022-11-09T18:29:47.955Z,8.70
2022-11-09T18:32:36.508Z,8.60
2022-11-09T18:35:23.530Z,8.70
2022-11-09T18:38:13.259Z,8.70
2022-11-09T18:41:02.836Z,8.60
2022-11-09T18:43:50.995Z,8.60
2022-11-09T18:46:38.299Z,8.60
2022-11-09T18:49:34.466Z,8.50
2022-11-09T18:52:21.792Z,8.50
2022-11-09T18:55:09.678Z,8.50
2022-11-09T18:57:56.523Z,8.40
2022-11-09T19:00:44.273Z,8.40
2022-11-09T19:03:31.229Z,8.40
2022-11-09T19:06:22.576Z,8.40
2022-11-09T19:09:31.629Z,8.30
2022-11-09T19:12:18.785Z,8.30
2022-11-09T19:15:07.112Z,8.30
2022-11-09T19:17:54.482Z,8.30
2022-11-09T19:20:41.772Z,8.30
2022-11-09T19:23:34.358Z,8.20
2022-11-09T19:26:23.334Z,8.20
2022-11-09T19:29:12.101Z,8.20
2022-11-09T19:31:58.915Z,8.20
2022-11-09T19:34:46.694Z,8.20
2022-11-09T19:37:33.808Z,8.20
2022-11-09T19:40:22.133Z,8.20
2022-11-09T19:43:09.534Z,8.20
2022-11-09T19:45:56.468Z,8.20
2022-11-09T19:48:45.818Z,8.20
2022-11-09T19:51:34.744Z,8.20
2022-11-09T19:54:21.894Z,8.30
2022-11-09T19:57:10.831Z,8.20
2022-11-09T20:00:07.183Z,8.30
2022-11-09T20:02:54.724Z,8.30
2022-11-09T20:05:41.893Z,8.30
2022-11-09T20:08:29.105Z,8.30
2022-11-09T20:11:38.047Z,8.30
2022-11-09T20:14:26.652Z,8.30
2022-11-09T20:17:13.848Z,8.30
2022-11-09T20:20:01.057Z,8.30
2022-11-09T20:22:48.143Z,8.30
2022-11-09T20:25:35.363Z,8.30
2022-11-09T20:28:22.499Z,8.30
2022-11-09T20:31:12.299Z,8.30
2022-11-09T20:34:00.909Z,8.30
2022-11-09T20:36:54.104Z,8.40
2022-11-09T20:39:42.650Z,8.40
2022-11-09T20:42:29.893Z,8.40
2022-11-09T20:45:17.614Z,8.40
2022-11-09T20:48:19.495Z,8.40
2022-11-09T20:51:17.838Z,8.40
2022-11-09T20:54:07.534Z,8.40
2022-11-09T20:56:54.897Z,8.50
2022-11-09T20:59:43.361Z,8.50
2022-11-09T21:02:30.618Z,8.50
2022-11-09T21:05:18.979Z,8.50
2022-11-09T21:08:06.485Z,8.50
2022-11-09T21:10:53.901Z,8.50
2022-11-09T21:13:42.106Z,8.50
2022-11-09T21:16:29.145Z,8.50
2022-11-09T21:19:16.602Z,8.50
2022-11-09T21:22:04.837Z,8.50
2022-11-09T21:25:09.377Z,8.50
2022-11-09T21:28:14.838Z,8.50
2022-11-09T21:31:02.528Z,8.50
2022-11-09T21:33:49.556Z,8.60
2022-11-09T21:36:36.680Z,8.60
2022-11-09T21:39:24.857Z,8.60
2022-11-09T21:42:12.592Z,8.60
2022-11-09T21:44:59.954Z,8.60
2022-11-09T21:47:47.278Z,8.60
2022-11-09T21:50:34.092Z,8.60
2022-11-09T21:53:21.172Z,8.50
2022-11-09T21:56:12.907Z,8.50
2022-11-09T21:59:00.455Z,8.50
2022-11-09T22:01:47.855Z,8.50
2022-11-09T22:04:35.144Z,8.40
2022-11-09T22:07:21.788Z,8.40
2022-11-09T22:10:10.797Z,8.40
2022-11-09T22:13:17.531Z,8.40
2022-11-09T22:16:08.228Z,8.40
2022-11-09T22:19:13.340Z,8.40
2022-11-09T22:22:00.282Z,8.40
2022-11-09T22:24:47.369Z,8.40
2022-11-09T22:27:34.652Z,8.40
2022-11-09T22:30:23.571Z,8.50
2022-11-09T22:33:10.725Z,8.50
2022-11-09T22:35:58.576Z,8.50
2022-11-09T22:38:46.311Z,8.50
2022-11-09T22:41:34.168Z,8.50
2022-11-09T22:44:21.209Z,8.50
2022-11-09T22:47:09.913Z,8.50
2022-11-09T22:49:56.856Z,8.60
2022-11-09T22:52:43.764Z,8.50
2022-11-09T22:55:30.758Z,8.50
2022-11-09T22:58:17.375Z,8.60
2022-11-09T23:01:07.218Z,8.60
2022-11-09T23:03:55.457Z,8.60
2022-11-09T23:06:42.632Z,8.60
2022-11-09T23:09:29.937Z,8.60
2022-11-09T23:12:16.951Z,8.50
2022-11-09T23:15:06.796Z,8.50
2022-11-09T23:18:12.170Z,8.60
2022-11-09T23:21:02.028Z,8.50
2022-11-09T23:23:49.763Z,8.50
2022-11-09T23:26:36.683Z,8.50
2022-11-09T23:29:23.461Z,8.50
2022-11-09T23:32:10.210Z,8.50
2022-11-09T23:34:57.076Z,8.50
2022-11-09T23:37:45.486Z,8.50
2022-11-09T23:40:34.136Z,8.50
2022-11-09T23:43:21.563Z,8.50
2022-11-09T23:46:10.671Z,8.50
2022-11-09T23:48:57.456Z,8.50
2022-11-09T23:51:44.312Z,8.50
2022-11-09T23:54:32.708Z,8.50
2022-11-09T23:57:19.839Z,8.50
